F\v Desperado — FVFQ — position and weather

sailwx.info

Track history (hours):
 
Tides and Currents Weather Stations Pressure Air Temp Water Temp Dewpoint Dewpoint Depression Visibility Wind Speed Wind Dir Waves Ship Positions

F\v Desperado

Last reported at 2015-Aug-29 02:21 UTC. Time now 2015-Aug-29 07:26 UTC.
Position N 47°50' W 004°10'.

Type: Fishing. MMSI: 228312000.

Date/timePositionNaut miles runAvg speedWind from/ knotsBaromVisibWave heightAir tempDewpointWater temp
2015-Aug-29 02:21N 47°50' W 004°10'0 0.0
2015-Aug-29 01:33N 47°50' W 004°10'0 0.0
2015-Aug-28 21:30N 47°50' W 004°10'0 0.0
2015-Aug-28 20:20N 47°50' W 004°10'0 0.0
2015-Aug-28 19:20N 47°50' W 004°10'0 0.0
2015-Aug-28 18:33N 47°50' W 004°10'0 0.0
2015-Aug-28 17:33N 47°50' W 004°10'0 0.0
2015-Aug-28 16:33N 47°50' W 004°10'0 0.0
2015-Aug-28 15:15N 47°50' W 004°10'0 0.0
2015-Aug-28 00:33N 47°50' W 004°10'0 0.0
2015-Aug-27 23:33N 47°50' W 004°10'  
2015-Aug-23 06:33N 47°37' W 003°52'8 7.8
2015-Aug-23 05:34N 47°31' W 003°45'8 7.5
2015-Aug-23 04:33N 47°24' W 003°40'7 7.4
2015-Aug-23 03:33N 47°18' W 003°34'37 2.4
2015-Aug-22 12:22N 46°45' W 003°09'2 0.5
2015-Aug-22 08:18N 46°47' W 003°11'4 2.3
2015-Aug-22 06:33N 46°44' W 003°06'3 3.2
2015-Aug-22 05:33N 46°47' W 003°09'3 3.3
2015-Aug-22 04:34N 46°49' W 003°13'2 2.1
2015-Aug-22 03:33N 46°47' W 003°12'3 3.4
2015-Aug-22 02:33N 46°45' W 003°07'3 3.3
2015-Aug-22 01:34N 46°43' W 003°04'2 2.5
2015-Aug-22 00:34N 46°42' W 003°06'3 3.3
2015-Aug-21 23:33N 46°43' W 003°11'3 2.6
2015-Aug-21 22:33N 46°45' W 003°12'3 3.4
2015-Aug-21 21:34N 46°44' W 003°07'3 3.3
2015-Aug-21 20:34N 46°43' W 003°03'1 1.0
2015-Aug-21 19:34N 46°44' W 003°03'3 3.4
2015-Aug-21 18:34N 46°46' W 003°07'3 3.3
2015-Aug-21 17:34N 46°48' W 003°11'3 3.4
2015-Aug-21 16:34N 46°50' W 003°15'2 1.9
2015-Aug-21 15:34N 46°48' W 003°15'2 1.9
2015-Aug-21 14:33N 46°48' W 003°18'3 2.9
2015-Aug-21 13:34N 46°50' W 003°20'3 3.2
2015-Aug-21 12:34N 46°53' W 003°20'3 3.2
2015-Aug-21 11:34N 46°57' W 003°20'3 3.4
2015-Aug-21 10:33N 46°60' W 003°21'7 6.6
2015-Aug-21 09:33N 47°06' W 003°26'9 7.9
2015-Aug-21 08:27N 47°13' W 003°32'7 7.9
2015-Aug-21 07:34N 47°19' W 003°37'8 8.1
2015-Aug-21 06:33N 47°26' W 003°43'8 8.2
2015-Aug-21 05:32N 47°34' W 003°49'19 6.3
2015-Aug-21 02:29N 47°53' W 003°55'0 0.0
2015-Aug-21 01:29N 47°53' W 003°55'5 5.0
2015-Aug-21 00:34N 47°48' W 003°56'8 7.8
2015-Aug-20 23:33N 47°40' W 003°54'8 7.5
2015-Aug-20 22:33N 47°33' W 003°52'8 8.2
2015-Aug-20 21:34N 47°25' W 003°49'6 6.4
2015-Aug-20 20:33N 47°19' W 003°46'3 3.1
2015-Aug-20 19:34N 47°16' W 003°46'3 3.2
2015-Aug-20 18:33N 47°13' W 003°47'3 3.2
2015-Aug-20 17:28N 47°09' W 003°49'2 2.6
2015-Aug-20 16:32N 47°07' W 003°51'3 3.3
2015-Aug-20 15:33N 47°10' W 003°54'4 2.9
2015-Aug-20 14:21N 47°12' W 003°58'3 3.3
2015-Aug-20 13:34N 47°13' W 004°02'2 2.2
2015-Aug-20 12:33N 47°13' W 004°05'3 3.3
2015-Aug-20 11:30N 47°13' W 003°60'1 0.5
2015-Aug-20 09:18N 47°13' W 004°01'1 0.1
2015-Aug-20 03:05N 47°12' W 004°01'2 2.6
2015-Aug-20 02:12N 47°12' W 003°58'2 0.5
2015-Aug-19 23:25N 47°11' W 003°60'9 3.1
2015-Aug-19 20:25N 47°05' W 003°50'3 3.0
2015-Aug-19 19:16N 47°03' W 003°45'2 2.9
2015-Aug-19 18:33N 47°02' W 003°43'18 1.1
2015-Aug-19 03:08N 47°19' W 003°50'5 7.8
2015-Aug-19 02:27N 47°24' W 003°51'  
Track history (hours):
 
Tides and Currents Weather Stations Pressure Air Temp Water Temp Dewpoint Dewpoint Depression Visibility Wind Speed Wind Dir Waves Ship Positions

F\v Desperado

Last reported at 2015-Aug-29 02:21 UTC. Time now 2015-Aug-29 07:26 UTC.
Position N 47°50' W 004°10'.

Type: Fishing. MMSI: 228312000.

Date/timePositionNaut miles runAvg speedWind from/ knotsBaromVisibWave heightAir tempDewpointWater temp
2015-Aug-29 02:21N 47°50' W 004°10'0 0.0
2015-Aug-29 01:33N 47°50' W 004°10'0 0.0
2015-Aug-28 21:30N 47°50' W 004°10'0 0.0
2015-Aug-28 20:20N 47°50' W 004°10'0 0.0
2015-Aug-28 19:20N 47°50' W 004°10'0 0.0
2015-Aug-28 18:33N 47°50' W 004°10'0 0.0
2015-Aug-28 17:33N 47°50' W 004°10'0 0.0
2015-Aug-28 16:33N 47°50' W 004°10'0 0.0
2015-Aug-28 15:15N 47°50' W 004°10'0 0.0
2015-Aug-28 00:33N 47°50' W 004°10'0 0.0
2015-Aug-27 23:33N 47°50' W 004°10'  
2015-Aug-23 06:33N 47°37' W 003°52'8 7.8
2015-Aug-23 05:34N 47°31' W 003°45'8 7.5
2015-Aug-23 04:33N 47°24' W 003°40'7 7.4
2015-Aug-23 03:33N 47°18' W 003°34'37 2.4
2015-Aug-22 12:22N 46°45' W 003°09'2 0.5
2015-Aug-22 08:18N 46°47' W 003°11'4 2.3
2015-Aug-22 06:33N 46°44' W 003°06'3 3.2
2015-Aug-22 05:33N 46°47' W 003°09'3 3.3
2015-Aug-22 04:34N 46°49' W 003°13'2 2.1
2015-Aug-22 03:33N 46°47' W 003°12'3 3.4
2015-Aug-22 02:33N 46°45' W 003°07'3 3.3
2015-Aug-22 01:34N 46°43' W 003°04'2 2.5
2015-Aug-22 00:34N 46°42' W 003°06'3 3.3
2015-Aug-21 23:33N 46°43' W 003°11'3 2.6
2015-Aug-21 22:33N 46°45' W 003°12'3 3.4
2015-Aug-21 21:34N 46°44' W 003°07'3 3.3
2015-Aug-21 20:34N 46°43' W 003°03'1 1.0
2015-Aug-21 19:34N 46°44' W 003°03'3 3.4
2015-Aug-21 18:34N 46°46' W 003°07'3 3.3
2015-Aug-21 17:34N 46°48' W 003°11'3 3.4
2015-Aug-21 16:34N 46°50' W 003°15'2 1.9
2015-Aug-21 15:34N 46°48' W 003°15'2 1.9
2015-Aug-21 14:33N 46°48' W 003°18'3 2.9
2015-Aug-21 13:34N 46°50' W 003°20'3 3.2
2015-Aug-21 12:34N 46°53' W 003°20'3 3.2
2015-Aug-21 11:34N 46°57' W 003°20'3 3.4
2015-Aug-21 10:33N 46°60' W 003°21'7 6.6
2015-Aug-21 09:33N 47°06' W 003°26'9 7.9
2015-Aug-21 08:27N 47°13' W 003°32'7 7.9
2015-Aug-21 07:34N 47°19' W 003°37'8 8.1
2015-Aug-21 06:33N 47°26' W 003°43'8 8.2
2015-Aug-21 05:32N 47°34' W 003°49'19 6.3
2015-Aug-21 02:29N 47°53' W 003°55'0 0.0
2015-Aug-21 01:29N 47°53' W 003°55'5 5.0
2015-Aug-21 00:34N 47°48' W 003°56'8 7.8
2015-Aug-20 23:33N 47°40' W 003°54'8 7.5
2015-Aug-20 22:33N 47°33' W 003°52'8 8.2
2015-Aug-20 21:34N 47°25' W 003°49'6 6.4
2015-Aug-20 20:33N 47°19' W 003°46'3 3.1
2015-Aug-20 19:34N 47°16' W 003°46'3 3.2
2015-Aug-20 18:33N 47°13' W 003°47'3 3.2
2015-Aug-20 17:28N 47°09' W 003°49'2 2.6
2015-Aug-20 16:32N 47°07' W 003°51'3 3.3
2015-Aug-20 15:33N 47°10' W 003°54'4 2.9
2015-Aug-20 14:21N 47°12' W 003°58'3 3.3
2015-Aug-20 13:34N 47°13' W 004°02'2 2.2
2015-Aug-20 12:33N 47°13' W 004°05'3 3.3
2015-Aug-20 11:30N 47°13' W 003°60'1 0.5
2015-Aug-20 09:18N 47°13' W 004°01'1 0.1
2015-Aug-20 03:05N 47°12' W 004°01'2 2.6
2015-Aug-20 02:12N 47°12' W 003°58'2 0.5
2015-Aug-19 23:25N 47°11' W 003°60'9 3.1
2015-Aug-19 20:25N 47°05' W 003°50'3 3.0
2015-Aug-19 19:16N 47°03' W 003°45'2 2.9
2015-Aug-19 18:33N 47°02' W 003°43'18 1.1
2015-Aug-19 03:08N 47°19' W 003°50'5 7.8
2015-Aug-19 02:27N 47°24' W 003°51'  

Dump ship's entire track history